createdAt,value
2023-02-14T00:01:12.797Z,78.18
2023-02-14T00:03:40.600Z,78.13
2023-02-14T00:06:09.630Z,78.22
2023-02-14T00:08:37.090Z,78.65
2023-02-14T00:11:05.646Z,78.95
2023-02-14T00:13:33.172Z,78.92
2023-02-14T00:16:00.302Z,79.15
2023-02-14T00:18:47.487Z,79.43
2023-02-14T00:21:14.736Z,79.61
2023-02-14T00:23:41.897Z,79.51
2023-02-14T00:26:16.816Z,79.94
2023-02-14T00:28:43.913Z,79.98
2023-02-14T00:31:11.198Z,80.06
2023-02-14T00:33:38.784Z,80.17
2023-02-14T00:36:07.581Z,80.37
2023-02-14T00:38:34.966Z,80.43
2023-02-14T00:41:02.981Z,80.47
2023-02-14T00:43:29.962Z,80.81
2023-02-14T00:45:57.746Z,80.94
2023-02-14T00:48:25.180Z,80.75
2023-02-14T00:50:52.465Z,80.88
2023-02-14T00:53:19.544Z,81.08
2023-02-14T00:55:47.258Z,81.06
2023-02-14T00:58:15.265Z,81.21
2023-02-14T01:00:42.484Z,81.18
2023-02-14T01:03:09.498Z,81.36
2023-02-14T01:05:36.545Z,81.61
2023-02-14T01:08:04.668Z,81.74
2023-02-14T01:10:32.006Z,82.10
2023-02-14T01:12:59.383Z,82.00
2023-02-14T01:15:28.240Z,82.44
2023-02-14T01:17:55.437Z,82.57
2023-02-14T01:20:22.493Z,82.58
2023-02-14T01:22:49.863Z,82.45
2023-02-14T01:25:17.439Z,82.24
2023-02-14T01:27:44.900Z,82.59
2023-02-14T01:30:14.622Z,82.85
2023-02-14T01:32:42.505Z,82.74
2023-02-14T01:35:09.922Z,82.86
2023-02-14T01:37:37.072Z,82.77
2023-02-14T01:40:08.612Z,82.67
2023-02-14T01:42:36.937Z,82.66
2023-02-14T01:45:09.512Z,82.57
2023-02-14T01:47:41.479Z,82.20
2023-02-14T01:50:36.493Z,82.10
2023-02-14T01:53:13.876Z,81.67
2023-02-14T01:55:46.781Z,81.84
2023-02-14T01:58:20.484Z,81.49
2023-02-14T02:00:58.637Z,81.19
2023-02-14T02:03:52.300Z,81.06
2023-02-14T02:06:25.604Z,80.77
2023-02-14T02:09:16.573Z,80.59
2023-02-14T02:11:44.218Z,80.41
2023-02-14T02:14:17.635Z,80.33
2023-02-14T02:17:03.506Z,80.18
2023-02-14T02:19:33.388Z,80.18
2023-02-14T02:22:06.119Z,79.98
2023-02-14T02:25:16.690Z,79.82
2023-02-14T02:27:55.814Z,79.93
2023-02-14T02:30:28.615Z,80.13
2023-02-14T02:33:17.538Z,80.07
2023-02-14T02:36:10.736Z,79.98
2023-02-14T02:39:04.161Z,80.22
2023-02-14T02:41:54.697Z,80.09
2023-02-14T02:44:54.614Z,80.51
2023-02-14T02:47:33.822Z,80.52
2023-02-14T02:50:42.996Z,80.55
2023-02-14T02:53:22.523Z,80.58
2023-02-14T02:56:22.566Z,80.63
2023-02-14T02:58:58.607Z,80.88
2023-02-14T03:01:34.572Z,81.19
2023-02-14T03:04:25.489Z,81.33
2023-02-14T03:06:53.224Z,81.52
2023-02-14T03:09:20.221Z,81.57
2023-02-14T03:12:12.906Z,81.73
2023-02-14T03:15:01.138Z,81.75
2023-02-14T03:17:46.851Z,81.95
2023-02-14T03:20:26.932Z,81.90
2023-02-14T03:23:05.568Z,82.05
2023-02-14T03:26:02.116Z,81.72
2023-02-14T03:28:43.266Z,81.90
2023-02-14T03:31:24.179Z,82.07
2023-02-14T03:33:59.967Z,81.81
2023-02-14T03:36:50.843Z,81.47
2023-02-14T03:39:35.119Z,80.95
2023-02-14T03:42:27.549Z,80.63
2023-02-14T03:44:56.873Z,80.46
2023-02-14T03:47:28.656Z,80.12
2023-02-14T03:50:18.940Z,80.03
2023-02-14T03:52:48.487Z,79.71
2023-02-14T03:55:20.121Z,79.44
2023-02-14T03:57:56.344Z,79.17
2023-02-14T04:00:23.534Z,79.02
2023-02-14T04:02:56.222Z,78.91
2023-02-14T04:05:26.623Z,78.69
2023-02-14T04:07:56.333Z,78.63
2023-02-14T04:10:24.643Z,78.37
2023-02-14T04:12:52.269Z,78.38
2023-02-14T04:15:19.392Z,78.22
2023-02-14T04:18:04.641Z,77.92
2023-02-14T04:20:31.801Z,78.00
2023-02-14T04:22:58.827Z,77.98
2023-02-14T04:25:26.277Z,77.58
2023-02-14T04:27:53.295Z,77.80
2023-02-14T04:30:22.931Z,77.43
2023-02-14T04:32:50.167Z,77.35
2023-02-14T04:35:17.299Z,77.56
2023-02-14T04:37:45.815Z,77.28
2023-02-14T04:40:16.896Z,77.25
2023-02-14T04:42:45.622Z,77.08
2023-02-14T04:45:13.450Z,76.76
2023-02-14T04:47:40.472Z,76.72
2023-02-14T04:50:08.124Z,76.81
2023-02-14T04:52:35.132Z,76.90
2023-02-14T04:55:02.316Z,77.15
2023-02-14T04:57:29.478Z,77.48
2023-02-14T04:59:56.555Z,78.07
2023-02-14T05:02:23.725Z,77.95
2023-02-14T05:04:50.750Z,77.78
2023-02-14T05:07:17.974Z,78.09
2023-02-14T05:09:44.981Z,78.01
2023-02-14T05:12:11.959Z,78.39
2023-02-14T05:14:39.084Z,78.31
2023-02-14T05:17:06.030Z,78.61
2023-02-14T05:19:33.050Z,78.68
2023-02-14T05:22:00.112Z,78.72
2023-02-14T05:24:27.290Z,79.11
2023-02-14T05:26:54.582Z,79.17
2023-02-14T05:29:21.619Z,79.27
2023-02-14T05:31:48.830Z,79.36
2023-02-14T05:34:15.816Z,79.99
2023-02-14T05:36:42.980Z,80.07
2023-02-14T05:39:09.943Z,80.43
2023-02-14T05:44:03.968Z,80.65
2023-02-14T05:46:31.200Z,80.62
2023-02-14T05:48:58.660Z,80.79
2023-02-14T05:51:26.098Z,80.95
2023-02-14T05:53:53.301Z,81.13
2023-02-14T05:56:20.281Z,80.90
2023-02-14T05:58:47.389Z,81.15
2023-02-14T06:01:14.513Z,81.13
2023-02-14T06:03:41.470Z,81.33
2023-02-14T06:06:08.581Z,81.42
2023-02-14T06:08:35.661Z,80.83
2023-02-14T06:11:02.996Z,80.69
2023-02-14T06:13:30.235Z,79.76
2023-02-14T06:15:57.491Z,78.30
2023-02-14T06:18:28.237Z,76.82
2023-02-14T06:20:55.913Z,75.87
2023-02-14T06:23:22.920Z,73.91
2023-02-14T06:25:50.146Z,71.76
2023-02-14T06:28:17.199Z,70.48
2023-02-14T06:30:46.244Z,69.09
2023-02-14T06:33:13.357Z,66.70
2023-02-14T06:35:40.486Z,65.97
2023-02-14T06:38:07.455Z,62.01
2023-02-14T06:40:34.655Z,60.53
2023-02-14T06:43:01.637Z,57.05
2023-02-14T06:45:28.687Z,54.54
2023-02-14T06:47:55.819Z,54.70
2023-02-14T06:50:22.966Z,53.31
2023-02-14T06:52:51.635Z,52.54
2023-02-14T06:55:19.329Z,52.16
2023-02-14T06:57:46.583Z,52.57
2023-02-14T07:00:15.029Z,50.99
2023-02-14T07:02:42.306Z,50.71
2023-02-14T07:05:10.127Z,51.97
2023-02-14T07:07:37.122Z,52.57
2023-02-14T07:10:04.675Z,52.84
2023-02-14T07:12:31.658Z,53.26
2023-02-14T07:14:58.818Z,53.99
2023-02-14T07:17:25.903Z,53.73
2023-02-14T07:19:52.955Z,53.69
2023-02-14T07:22:19.987Z,53.71
2023-02-14T07:24:47.649Z,53.51
2023-02-14T07:27:14.686Z,52.73
2023-02-14T07:29:41.682Z,51.56
2023-02-14T07:32:08.926Z,49.23
2023-02-14T07:34:36.054Z,49.97
2023-02-14T07:37:03.033Z,49.85
2023-02-14T07:39:30.161Z,50.81
2023-02-14T07:41:57.167Z,50.65
2023-02-14T07:44:26.939Z,50.96
2023-02-14T07:46:54.001Z,50.71
2023-02-14T07:49:21.257Z,50.85
2023-02-14T07:51:48.337Z,50.24
2023-02-14T07:54:15.534Z,51.00
2023-02-14T07:56:42.614Z,51.09
2023-02-14T07:59:09.646Z,50.56
2023-02-14T08:01:36.795Z,50.15
2023-02-14T08:04:04.114Z,50.59
2023-02-14T08:06:31.314Z,51.16
2023-02-14T08:08:58.399Z,51.24
2023-02-14T08:11:43.968Z,51.94
2023-02-14T08:14:11.160Z,52.24
2023-02-14T08:16:39.207Z,52.29
2023-02-14T08:19:06.376Z,52.33
2023-02-14T08:21:33.462Z,52.22
2023-02-14T08:24:01.004Z,51.79
2023-02-14T08:26:28.041Z,52.43
2023-02-14T08:28:55.228Z,52.08
2023-02-14T08:31:35.193Z,51.76
2023-02-14T08:34:07.132Z,52.07
2023-02-14T08:36:35.212Z,51.77
2023-02-14T08:39:04.943Z,51.94
2023-02-14T08:41:32.550Z,51.32
2023-02-14T08:43:59.711Z,51.60
2023-02-14T08:46:26.968Z,51.36
2023-02-14T08:48:55.000Z,51.00
2023-02-14T08:51:37.898Z,51.13
2023-02-14T08:54:05.168Z,49.74
2023-02-14T08:56:33.217Z,49.70
2023-02-14T08:59:00.340Z,49.61
2023-02-14T09:01:29.238Z,49.04
2023-02-14T09:03:57.088Z,48.52
2023-02-14T09:06:24.169Z,48.87
2023-02-14T09:08:51.973Z,48.74
2023-02-14T09:11:22.447Z,47.92
2023-02-14T09:13:51.590Z,47.89
2023-02-14T09:16:20.645Z,47.96
2023-02-14T09:18:49.004Z,47.25
2023-02-14T09:21:18.500Z,46.88
2023-02-14T09:23:45.875Z,47.84
2023-02-14T09:26:15.623Z,47.43
2023-02-14T09:28:43.392Z,46.69
2023-02-14T09:31:22.879Z,46.97
2023-02-14T09:34:09.352Z,47.07
2023-02-14T09:36:55.185Z,46.15
2023-02-14T09:39:22.422Z,46.98
2023-02-14T09:42:04.101Z,47.04
2023-02-14T09:44:42.616Z,46.97
2023-02-14T09:47:27.895Z,46.90
2023-02-14T09:49:55.968Z,46.39
2023-02-14T09:52:28.030Z,45.71
2023-02-14T09:54:58.054Z,46.41
2023-02-14T09:58:03.739Z,46.44
2023-02-14T10:00:30.748Z,45.77
2023-02-14T10:03:02.099Z,45.78
2023-02-14T10:05:53.761Z,46.82
2023-02-14T10:08:48.520Z,47.52
2023-02-14T10:11:20.625Z,46.83
2023-02-14T10:14:20.688Z,45.92
2023-02-14T10:16:56.623Z,45.38
2023-02-14T10:19:32.247Z,46.21
2023-02-14T10:22:04.136Z,46.13
2023-02-14T10:24:40.476Z,45.13
2023-02-14T10:27:15.989Z,46.29
2023-02-14T10:29:43.078Z,45.08
2023-02-14T10:32:22.413Z,46.34
2023-02-14T10:34:57.313Z,43.41
2023-02-14T10:37:24.349Z,44.06
2023-02-14T10:40:25.198Z,43.37
2023-02-14T10:43:33.258Z,44.55
2023-02-14T10:46:03.725Z,43.96
2023-02-14T10:49:08.486Z,43.81
2023-02-14T10:51:53.703Z,44.29
2023-02-14T10:54:38.301Z,44.06
2023-02-14T10:57:29.675Z,45.34
2023-02-14T11:00:40.088Z,44.32
2023-02-14T11:03:09.602Z,45.08
2023-02-14T11:05:48.491Z,47.25
2023-02-14T11:08:27.078Z,48.54
2023-02-14T11:11:11.101Z,44.93
2023-02-14T11:13:39.755Z,46.90
2023-02-14T11:16:10.354Z,43.83
2023-02-14T11:18:40.115Z,45.64
2023-02-14T11:21:11.517Z,45.69
2023-02-14T11:23:47.153Z,48.58
2023-02-14T11:26:35.190Z,47.82
2023-02-14T11:29:12.407Z,48.33
2023-02-14T11:31:41.027Z,49.07
2023-02-14T11:34:36.731Z,47.86
2023-02-14T11:37:16.060Z,48.19
2023-02-14T11:39:44.420Z,49.75
2023-02-14T11:42:13.285Z,48.76
2023-02-14T11:44:55.674Z,49.58
2023-02-14T11:47:31.808Z,50.30
2023-02-14T11:50:02.736Z,49.89
2023-02-14T11:52:30.961Z,51.66
2023-02-14T11:54:59.337Z,50.35
2023-02-14T11:57:33.533Z,51.60
2023-02-14T12:00:04.925Z,49.71
2023-02-14T12:02:44.909Z,50.81
2023-02-14T12:05:31.679Z,46.77
2023-02-14T12:08:08.263Z,47.07
2023-02-14T12:10:39.028Z,47.08
2023-02-14T12:13:09.227Z,46.59
2023-02-14T12:15:49.737Z,45.98
2023-02-14T12:18:25.035Z,46.85
2023-02-14T12:21:14.189Z,48.04
2023-02-14T12:23:59.772Z,48.81
2023-02-14T12:26:35.785Z,48.29
2023-02-14T12:29:28.042Z,49.65
2023-02-14T12:31:59.890Z,48.94
2023-02-14T12:34:28.357Z,49.56
2023-02-14T12:37:07.947Z,47.48
2023-02-14T12:40:05.556Z,48.22
2023-02-14T12:43:04.334Z,47.52
2023-02-14T12:45:56.798Z,45.69
2023-02-14T12:48:55.360Z,46.10
2023-02-14T12:51:25.278Z,46.44
2023-02-14T12:54:16.805Z,46.74
2023-02-14T12:56:59.489Z,47.19
2023-02-14T12:59:58.814Z,48.05
2023-02-14T13:02:28.715Z,47.04
2023-02-14T13:05:05.961Z,47.18
2023-02-14T13:08:11.326Z,48.69
2023-02-14T13:11:02.215Z,46.08
2023-02-14T13:14:06.130Z,48.37
2023-02-14T13:16:56.285Z,46.79
2023-02-14T13:19:41.827Z,48.01
2023-02-14T13:22:15.346Z,47.50
2023-02-14T13:24:46.379Z,47.77
2023-02-14T13:27:22.181Z,49.50
2023-02-14T13:29:56.561Z,48.66
2023-02-14T13:32:31.643Z,47.84
2023-02-14T13:34:59.640Z,47.02
2023-02-14T13:37:28.356Z,47.77
2023-02-14T13:40:09.008Z,50.34
2023-02-14T13:42:48.084Z,50.08
2023-02-14T13:45:30.528Z,48.11
2023-02-14T13:48:10.447Z,47.08
2023-02-14T13:51:00.084Z,49.36
2023-02-14T13:53:39.758Z,50.99
2023-02-14T13:56:31.523Z,50.40
2023-02-14T13:59:28.066Z,51.31
2023-02-14T14:01:56.380Z,52.15
2023-02-14T14:04:26.394Z,52.42
2023-02-14T14:07:05.557Z,50.57
2023-02-14T14:09:41.478Z,51.42
2023-02-14T14:12:29.020Z,53.28
2023-02-14T14:15:05.232Z,51.85
2023-02-14T14:17:33.276Z,51.25
2023-02-14T14:20:01.560Z,51.83
2023-02-14T14:22:28.974Z,52.25
2023-02-14T14:24:59.519Z,51.98
2023-02-14T14:27:30.912Z,52.50
2023-02-14T14:30:01.241Z,53.08
2023-02-14T14:32:36.621Z,54.30
2023-02-14T14:35:05.867Z,54.00
2023-02-14T14:37:36.046Z,54.78
2023-02-14T14:40:11.112Z,54.67
2023-02-14T14:42:40.582Z,54.09
2023-02-14T14:45:19.830Z,53.69
2023-02-14T14:47:48.344Z,54.12
2023-02-14T14:50:24.490Z,54.97
2023-02-14T14:52:54.538Z,54.75
2023-02-14T14:55:27.973Z,55.02
2023-02-14T14:58:08.404Z,55.79
2023-02-14T15:00:42.751Z,56.06
2023-02-14T15:03:12.587Z,56.95
2023-02-14T15:05:42.361Z,58.08
2023-02-14T15:08:33.523Z,58.52
2023-02-14T15:11:11.578Z,58.48
2023-02-14T15:13:49.960Z,59.55
2023-02-14T15:16:48.771Z,58.53
2023-02-14T15:19:33.587Z,59.59
2023-02-14T15:22:06.227Z,59.36
2023-02-14T15:24:35.311Z,60.62
2023-02-14T15:27:03.374Z,60.69
2023-02-14T15:29:32.771Z,60.81
2023-02-14T15:32:03.355Z,60.39
2023-02-14T15:34:36.221Z,58.91
2023-02-14T15:37:06.872Z,58.87
2023-02-14T15:39:41.691Z,59.36
2023-02-14T15:42:32.971Z,59.17
2023-02-14T15:45:24.661Z,57.86
2023-02-14T15:47:57.750Z,58.82
2023-02-14T15:50:30.481Z,57.56
2023-02-14T15:53:05.885Z,57.29
2023-02-14T15:55:34.449Z,58.32
2023-02-14T15:58:11.863Z,58.42
2023-02-14T16:00:39.040Z,58.43
2023-02-14T16:03:09.080Z,58.69
2023-02-14T16:05:36.367Z,59.46
2023-02-14T16:08:23.038Z,59.05
2023-02-14T16:11:01.214Z,59.35
2023-02-14T16:13:37.011Z,60.03
2023-02-14T16:16:09.812Z,60.27
2023-02-14T16:18:43.994Z,60.86
2023-02-14T16:21:30.661Z,61.08
2023-02-14T16:24:06.990Z,61.29
2023-02-14T16:26:36.068Z,62.01
2023-02-14T16:29:07.308Z,62.43
2023-02-14T16:31:56.575Z,62.74
2023-02-14T16:34:30.456Z,62.84
2023-02-14T16:36:57.573Z,63.13
2023-02-14T16:39:26.433Z,63.11
2023-02-14T16:41:56.453Z,63.35
2023-02-14T16:44:23.680Z,63.79
2023-02-14T16:46:50.896Z,63.86
2023-02-14T16:49:17.899Z,63.86
2023-02-14T16:51:47.877Z,64.07
2023-02-14T16:54:19.873Z,64.06
2023-02-14T16:56:48.786Z,64.55
2023-02-14T16:59:15.785Z,64.49
2023-02-14T17:01:43.013Z,64.73
2023-02-14T17:04:10.463Z,65.20
2023-02-14T17:06:42.001Z,65.20
2023-02-14T17:09:12.349Z,65.35
2023-02-14T17:11:45.120Z,65.49
2023-02-14T17:14:18.247Z,65.43
2023-02-14T17:16:45.499Z,65.77
2023-02-14T17:19:13.042Z,66.09
2023-02-14T17:21:40.628Z,66.21
2023-02-14T17:24:07.610Z,66.21
2023-02-14T17:26:35.307Z,66.42
2023-02-14T17:29:02.284Z,66.81
2023-02-14T17:31:29.616Z,66.83
2023-02-14T17:33:56.842Z,67.04
2023-02-14T17:36:24.261Z,67.40
2023-02-14T17:38:53.923Z,66.67
2023-02-14T17:41:24.147Z,65.99
2023-02-14T17:43:54.669Z,65.89
2023-02-14T17:46:22.453Z,65.35
2023-02-14T17:48:49.755Z,65.51
2023-02-14T17:51:20.453Z,65.75
2023-02-14T17:53:48.672Z,65.50
2023-02-14T17:56:22.119Z,65.76
2023-02-14T17:58:50.790Z,66.12
2023-02-14T18:01:20.667Z,66.06
2023-02-14T18:03:48.355Z,66.63
2023-02-14T18:06:16.123Z,67.26
2023-02-14T18:09:04.730Z,67.37
2023-02-14T18:11:31.966Z,67.61
2023-02-14T18:13:59.825Z,67.46
2023-02-14T18:16:27.001Z,67.50
2023-02-14T18:18:55.053Z,67.62
2023-02-14T18:21:23.298Z,67.71
2023-02-14T18:23:50.459Z,67.94
2023-02-14T18:26:18.777Z,67.98
2023-02-14T18:28:46.712Z,67.84
2023-02-14T18:31:17.113Z,67.90
2023-02-14T18:33:45.504Z,67.64
2023-02-14T18:36:15.775Z,66.89
2023-02-14T18:38:44.736Z,66.19
2023-02-14T18:41:14.565Z,66.09
2023-02-14T18:43:41.961Z,65.65
2023-02-14T18:46:12.487Z,65.72
2023-02-14T18:48:40.584Z,65.74
2023-02-14T18:51:09.593Z,65.87
2023-02-14T18:53:37.483Z,66.04
2023-02-14T18:56:10.016Z,65.40
2023-02-14T18:58:37.501Z,65.61
2023-02-14T19:01:09.573Z,65.41
2023-02-14T19:03:37.202Z,65.61
2023-02-14T19:06:04.780Z,65.36
2023-02-14T19:08:37.175Z,65.07
2023-02-14T19:11:05.349Z,64.98
2023-02-14T19:13:33.745Z,64.94
2023-02-14T19:16:01.472Z,64.99
2023-02-14T19:18:28.566Z,65.01
2023-02-14T19:20:55.755Z,65.06
2023-02-14T19:23:22.720Z,64.72
2023-02-14T19:25:49.940Z,64.51
2023-02-14T19:28:17.154Z,63.96
2023-02-14T19:30:44.642Z,63.36
2023-02-14T19:33:11.950Z,63.58
2023-02-14T19:35:39.242Z,63.81
2023-02-14T19:38:06.367Z,63.97
2023-02-14T19:40:33.340Z,63.79
2023-02-14T19:43:00.456Z,64.07
2023-02-14T19:45:32.626Z,64.29
2023-02-14T19:48:01.840Z,64.22
2023-02-14T19:50:29.772Z,64.16
2023-02-14T19:52:58.421Z,63.50
2023-02-14T19:55:25.915Z,63.91
2023-02-14T19:57:53.386Z,63.67
2023-02-14T20:00:21.113Z,63.85
2023-02-14T20:02:48.392Z,63.72
2023-02-14T20:05:17.634Z,63.86
2023-02-14T20:07:45.199Z,63.44
2023-02-14T20:10:12.816Z,63.35
2023-02-14T20:12:39.914Z,62.75
2023-02-14T20:15:10.543Z,62.36
2023-02-14T20:17:38.061Z,61.17
2023-02-14T20:20:13.380Z,60.98
2023-02-14T20:22:43.111Z,60.79
2023-02-14T20:25:10.419Z,61.30
2023-02-14T20:27:37.653Z,62.04
2023-02-14T20:30:06.638Z,61.83
2023-02-14T20:32:33.947Z,62.10
2023-02-14T20:35:01.076Z,62.43
2023-02-14T20:37:28.377Z,62.91
2023-02-14T20:39:56.054Z,63.00
2023-02-14T20:42:23.865Z,64.00
2023-02-14T20:44:51.622Z,64.08
2023-02-14T20:47:19.276Z,64.49
2023-02-14T20:49:46.332Z,64.46
2023-02-14T20:52:13.705Z,64.87
2023-02-14T20:54:41.125Z,65.10
2023-02-14T20:57:08.442Z,65.61
2023-02-14T20:59:38.039Z,66.09
2023-02-14T21:02:05.605Z,66.59
2023-02-14T21:04:32.680Z,67.17
2023-02-14T21:07:00.690Z,67.49
2023-02-14T21:09:28.402Z,67.34
2023-02-14T21:11:55.683Z,67.27
2023-02-14T21:14:22.993Z,67.79
2023-02-14T21:16:50.159Z,67.85
2023-02-14T21:19:17.812Z,67.82
2023-02-14T21:21:44.928Z,68.04
2023-02-14T21:24:17.761Z,68.06
2023-02-14T21:26:45.881Z,68.29
2023-02-14T21:29:13.022Z,68.65
2023-02-14T21:31:40.329Z,68.81
2023-02-14T21:34:07.438Z,68.93
2023-02-14T21:36:36.193Z,69.50
2023-02-14T21:39:04.998Z,69.72
2023-02-14T21:41:32.688Z,69.88
2023-02-14T21:44:01.800Z,70.38
2023-02-14T21:46:32.826Z,70.64
2023-02-14T21:49:20.302Z,70.97
2023-02-14T21:51:48.612Z,71.08
2023-02-14T21:54:16.211Z,71.23
2023-02-14T21:56:44.034Z,71.54
2023-02-14T21:59:11.524Z,71.55
2023-02-14T22:01:41.576Z,72.08
2023-02-14T22:04:11.363Z,72.25
2023-02-14T22:06:40.936Z,72.28
2023-02-14T22:09:08.275Z,71.99
2023-02-14T22:11:35.862Z,72.25
2023-02-14T22:14:03.142Z,72.61
2023-02-14T22:16:30.635Z,72.69
2023-02-14T22:18:57.724Z,73.04
2023-02-14T22:21:26.833Z,73.16
2023-02-14T22:23:55.484Z,73.56
2023-02-14T22:26:27.129Z,73.75
2023-02-14T22:28:57.225Z,73.88
2023-02-14T22:31:26.103Z,73.99
2023-02-14T22:33:53.709Z,74.01
2023-02-14T22:36:21.167Z,73.68
2023-02-14T22:38:48.403Z,74.12
2023-02-14T22:41:20.683Z,74.31
2023-02-14T22:43:48.135Z,74.20
2023-02-14T22:46:17.380Z,74.27
2023-02-14T22:48:44.954Z,74.34
2023-02-14T22:51:21.479Z,74.48
2023-02-14T22:53:49.855Z,74.62
2023-02-14T22:56:22.438Z,74.84
2023-02-14T22:58:54.482Z,74.84
2023-02-14T23:01:23.159Z,74.79
2023-02-14T23:03:54.441Z,74.73
2023-02-14T23:06:21.777Z,74.91
2023-02-14T23:08:48.961Z,74.68
2023-02-14T23:11:21.994Z,74.74
2023-02-14T23:14:07.548Z,75.09
2023-02-14T23:16:53.745Z,74.99
2023-02-14T23:19:41.709Z,75.19
2023-02-14T23:22:15.640Z,75.07
2023-02-14T23:24:43.280Z,75.30
2023-02-14T23:27:10.520Z,75.23
2023-02-14T23:29:38.085Z,75.32
2023-02-14T23:32:06.651Z,75.38
2023-02-14T23:34:36.112Z,75.73
2023-02-14T23:37:03.846Z,75.66
2023-02-14T23:39:35.905Z,75.71
2023-02-14T23:42:05.616Z,75.77
2023-02-14T23:44:33.478Z,75.76
2023-02-14T23:47:04.661Z,75.54
2023-02-14T23:49:34.114Z,75.50
2023-02-14T23:52:04.778Z,75.15
2023-02-14T23:54:32.019Z,75.38
2023-02-14T23:56:59.200Z,75.37
2023-02-14T23:59:26.500Z,75.12
